sensor_id;sensor_type;location;lat;lon;timestamp;temperature;humidity
32296;DHT22;18781;51.550;5.418;2023-12-20T00:00:54;10.70;82.70
32296;DHT22;18781;51.550;5.418;2023-12-20T00:03:20;10.70;82.70
32296;DHT22;18781;51.550;5.418;2023-12-20T00:05:46;10.60;82.70
32296;DHT22;18781;51.550;5.418;2023-12-20T00:08:12;10.60;82.80
32296;DHT22;18781;51.550;5.418;2023-12-20T00:10:38;10.60;82.70
32296;DHT22;18781;51.550;5.418;2023-12-20T00:13:04;10.50;82.70
32296;DHT22;18781;51.550;5.418;2023-12-20T00:15:29;10.50;82.60
32296;DHT22;18781;51.550;5.418;2023-12-20T00:17:55;10.50;82.80
32296;DHT22;18781;51.550;5.418;2023-12-20T00:20:21;10.40;82.80
32296;DHT22;18781;51.550;5.418;2023-12-20T00:22:46;10.40;82.70
32296;DHT22;18781;51.550;5.418;2023-12-20T00:25:12;10.40;82.80
32296;DHT22;18781;51.550;5.418;2023-12-20T00:27:38;10.30;82.80
32296;DHT22;18781;51.550;5.418;2023-12-20T00:30:04;10.30;82.80
32296;DHT22;18781;51.550;5.418;2023-12-20T00:32:29;10.30;82.80
32296;DHT22;18781;51.550;5.418;2023-12-20T00:34:55;10.30;82.80
32296;DHT22;18781;51.550;5.418;2023-12-20T00:37:21;10.30;82.80
32296;DHT22;18781;51.550;5.418;2023-12-20T00:39:46;10.20;82.70
32296;DHT22;18781;51.550;5.418;2023-12-20T00:42:12;10.20;82.70
32296;DHT22;18781;51.550;5.418;2023-12-20T00:44:37;10.20;82.70
32296;DHT22;18781;51.550;5.418;2023-12-20T00:47:03;10.10;82.60
32296;DHT22;18781;51.550;5.418;2023-12-20T00:49:29;10.10;82.70
32296;DHT22;18781;51.550;5.418;2023-12-20T00:51:55;10.10;82.60
32296;DHT22;18781;51.550;5.418;2023-12-20T00:54:20;10.00;82.50
32296;DHT22;18781;51.550;5.418;2023-12-20T00:56:46;10.00;82.50
32296;DHT22;18781;51.550;5.418;2023-12-20T00:59:11;10.00;82.50
32296;DHT22;18781;51.550;5.418;2023-12-20T01:01:37;9.90;82.40
32296;DHT22;18781;51.550;5.418;2023-12-20T01:04:03;9.90;82.50
32296;DHT22;18781;51.550;5.418;2023-12-20T01:06:29;9.90;82.50
32296;DHT22;18781;51.550;5.418;2023-12-20T01:08:55;9.80;82.40
32296;DHT22;18781;51.550;5.418;2023-12-20T01:11:20;9.80;82.40
32296;DHT22;18781;51.550;5.418;2023-12-20T01:13:46;9.80;82.50
32296;DHT22;18781;51.550;5.418;2023-12-20T01:16:12;9.70;82.50
32296;DHT22;18781;51.550;5.418;2023-12-20T01:18:37;9.70;82.60
32296;DHT22;18781;51.550;5.418;2023-12-20T01:21:04;9.70;82.60
32296;DHT22;18781;51.550;5.418;2023-12-20T01:23:30;9.70;82.70
32296;DHT22;18781;51.550;5.418;2023-12-20T01:25:56;9.60;82.70
32296;DHT22;18781;51.550;5.418;2023-12-20T01:28:21;9.60;82.80
32296;DHT22;18781;51.550;5.418;2023-12-20T01:30:48;9.60;82.90
32296;DHT22;18781;51.550;5.418;2023-12-20T01:33:13;9.60;83.00
32296;DHT22;18781;51.550;5.418;2023-12-20T01:35:39;9.60;83.10
32296;DHT22;18781;51.550;5.418;2023-12-20T01:38:05;9.60;83.20
32296;DHT22;18781;51.550;5.418;2023-12-20T01:40:30;9.60;83.20
32296;DHT22;18781;51.550;5.418;2023-12-20T01:45:25;9.60;83.00
32296;DHT22;18781;51.550;5.418;2023-12-20T01:47:52;9.60;83.00
32296;DHT22;18781;51.550;5.418;2023-12-20T01:50:17;9.50;82.90
32296;DHT22;18781;51.550;5.418;2023-12-20T01:52:44;9.60;83.00
32296;DHT22;18781;51.550;5.418;2023-12-20T01:55:10;9.50;82.90
32296;DHT22;18781;51.550;5.418;2023-12-20T01:57:41;9.50;83.00
32296;DHT22;18781;51.550;5.418;2023-12-20T02:00:07;9.50;82.90
32296;DHT22;18781;51.550;5.418;2023-12-20T02:02:37;9.50;82.80
32296;DHT22;18781;51.550;5.418;2023-12-20T02:05:06;9.50;82.90
32296;DHT22;18781;51.550;5.418;2023-12-20T02:07:31;9.50;82.90
32296;DHT22;18781;51.550;5.418;2023-12-20T02:09:57;9.40;82.90
32296;DHT22;18781;51.550;5.418;2023-12-20T02:12:23;9.40;82.80
32296;DHT22;18781;51.550;5.418;2023-12-20T02:14:49;9.40;82.80
32296;DHT22;18781;51.550;5.418;2023-12-20T02:17:15;9.40;82.80
32296;DHT22;18781;51.550;5.418;2023-12-20T02:19:42;9.40;82.80
32296;DHT22;18781;51.550;5.418;2023-12-20T02:22:09;9.30;82.90
32296;DHT22;18781;51.550;5.418;2023-12-20T02:24:35;9.30;82.90
32296;DHT22;18781;51.550;5.418;2023-12-20T02:27:01;9.30;82.90
32296;DHT22;18781;51.550;5.418;2023-12-20T02:29:27;9.30;82.90
32296;DHT22;18781;51.550;5.418;2023-12-20T02:31:53;9.30;82.90
32296;DHT22;18781;51.550;5.418;2023-12-20T02:34:18;9.30;82.90
32296;DHT22;18781;51.550;5.418;2023-12-20T02:36:44;9.30;83.00
32296;DHT22;18781;51.550;5.418;2023-12-20T02:39:09;9.30;83.10
32296;DHT22;18781;51.550;5.418;2023-12-20T02:41:35;9.30;83.10
32296;DHT22;18781;51.550;5.418;2023-12-20T02:44:01;9.30;83.10
32296;DHT22;18781;51.550;5.418;2023-12-20T02:46:27;9.20;83.10
32296;DHT22;18781;51.550;5.418;2023-12-20T02:48:53;9.20;83.10
32296;DHT22;18781;51.550;5.418;2023-12-20T02:51:18;9.20;83.20
32296;DHT22;18781;51.550;5.418;2023-12-20T02:53:44;9.20;83.10
32296;DHT22;18781;51.550;5.418;2023-12-20T02:56:09;9.20;83.20
32296;DHT22;18781;51.550;5.418;2023-12-20T02:58:35;9.20;83.20
32296;DHT22;18781;51.550;5.418;2023-12-20T03:01:01;9.20;83.20
32296;DHT22;18781;51.550;5.418;2023-12-20T03:03:26;9.20;83.20
32296;DHT22;18781;51.550;5.418;2023-12-20T03:05:52;9.20;83.30
32296;DHT22;18781;51.550;5.418;2023-12-20T03:08:18;9.20;83.40
32296;DHT22;18781;51.550;5.418;2023-12-20T03:10:44;9.20;83.40
32296;DHT22;18781;51.550;5.418;2023-12-20T03:13:10;9.20;83.50
32296;DHT22;18781;51.550;5.418;2023-12-20T03:15:35;9.20;83.50
32296;DHT22;18781;51.550;5.418;2023-12-20T03:18:01;9.20;83.50
32296;DHT22;18781;51.550;5.418;2023-12-20T03:20:27;9.20;83.50
32296;DHT22;18781;51.550;5.418;2023-12-20T03:22:53;9.20;83.50
32296;DHT22;18781;51.550;5.418;2023-12-20T03:25:18;9.20;83.40
32296;DHT22;18781;51.550;5.418;2023-12-20T03:27:44;9.20;83.40
32296;DHT22;18781;51.550;5.418;2023-12-20T03:30:10;9.20;83.30
32296;DHT22;18781;51.550;5.418;2023-12-20T03:32:36;9.20;83.20
32296;DHT22;18781;51.550;5.418;2023-12-20T03:35:03;9.20;83.10
32296;DHT22;18781;51.550;5.418;2023-12-20T03:37:28;9.20;83.20
32296;DHT22;18781;51.550;5.418;2023-12-20T03:39:54;9.10;83.20
32296;DHT22;18781;51.550;5.418;2023-12-20T03:42:20;9.10;83.20
32296;DHT22;18781;51.550;5.418;2023-12-20T03:44:45;9.20;83.40
32296;DHT22;18781;51.550;5.418;2023-12-20T03:47:11;9.20;83.50
32296;DHT22;18781;51.550;5.418;2023-12-20T03:49:37;9.20;83.50
32296;DHT22;18781;51.550;5.418;2023-12-20T03:52:04;9.10;83.60
32296;DHT22;18781;51.550;5.418;2023-12-20T03:54:30;9.20;83.70
32296;DHT22;18781;51.550;5.418;2023-12-20T03:56:55;9.20;83.70
32296;DHT22;18781;51.550;5.418;2023-12-20T03:59:21;9.20;84.30
32296;DHT22;18781;51.550;5.418;2023-12-20T04:01:47;9.20;83.80
32296;DHT22;18781;51.550;5.418;2023-12-20T04:04:13;9.20;83.80
32296;DHT22;18781;51.550;5.418;2023-12-20T04:06:39;9.20;83.80
32296;DHT22;18781;51.550;5.418;2023-12-20T04:09:05;9.20;83.80
32296;DHT22;18781;51.550;5.418;2023-12-20T04:11:31;9.20;83.80
32296;DHT22;18781;51.550;5.418;2023-12-20T04:13:56;9.30;83.90
32296;DHT22;18781;51.550;5.418;2023-12-20T04:16:22;9.30;83.90
32296;DHT22;18781;51.550;5.418;2023-12-20T04:18:48;9.30;84.50
32296;DHT22;18781;51.550;5.418;2023-12-20T04:21:13;9.30;83.90
32296;DHT22;18781;51.550;5.418;2023-12-20T04:23:39;9.30;83.90
32296;DHT22;18781;51.550;5.418;2023-12-20T04:26:04;9.30;84.00
32296;DHT22;18781;51.550;5.418;2023-12-20T04:28:30;9.30;84.00
32296;DHT22;18781;51.550;5.418;2023-12-20T04:30:56;9.30;84.00
32296;DHT22;18781;51.550;5.418;2023-12-20T04:33:22;9.40;84.00
32296;DHT22;18781;51.550;5.418;2023-12-20T04:35:48;9.40;84.00
32296;DHT22;18781;51.550;5.418;2023-12-20T04:38:14;9.40;84.60
32296;DHT22;18781;51.550;5.418;2023-12-20T04:40:39;9.40;84.10
32296;DHT22;18781;51.550;5.418;2023-12-20T04:43:07;9.40;84.10
32296;DHT22;18781;51.550;5.418;2023-12-20T04:45:33;9.40;84.10
32296;DHT22;18781;51.550;5.418;2023-12-20T04:47:58;9.50;84.10
32296;DHT22;18781;51.550;5.418;2023-12-20T04:50:24;9.50;84.10
32296;DHT22;18781;51.550;5.418;2023-12-20T04:52:50;9.50;84.10
32296;DHT22;18781;51.550;5.418;2023-12-20T04:55:16;9.50;84.10
32296;DHT22;18781;51.550;5.418;2023-12-20T04:57:41;9.50;84.60
32296;DHT22;18781;51.550;5.418;2023-12-20T05:00:08;9.50;84.00
32296;DHT22;18781;51.550;5.418;2023-12-20T05:02:37;9.50;84.00
32296;DHT22;18781;51.550;5.418;2023-12-20T05:05:03;9.60;84.00
32296;DHT22;18781;51.550;5.418;2023-12-20T05:07:28;9.60;84.00
32296;DHT22;18781;51.550;5.418;2023-12-20T05:09:54;9.60;83.90
32296;DHT22;18781;51.550;5.418;2023-12-20T05:12:19;9.60;83.90
32296;DHT22;18781;51.550;5.418;2023-12-20T05:14:46;9.60;83.80
32296;DHT22;18781;51.550;5.418;2023-12-20T05:17:11;9.60;83.80
32296;DHT22;18781;51.550;5.418;2023-12-20T05:19:37;9.60;83.80
32296;DHT22;18781;51.550;5.418;2023-12-20T05:22:03;9.60;83.80
32296;DHT22;18781;51.550;5.418;2023-12-20T05:24:29;9.70;83.90
32296;DHT22;18781;51.550;5.418;2023-12-20T05:26:54;9.60;83.80
32296;DHT22;18781;51.550;5.418;2023-12-20T05:29:22;9.70;83.70
32296;DHT22;18781;51.550;5.418;2023-12-20T05:31:48;9.70;83.70
32296;DHT22;18781;51.550;5.418;2023-12-20T05:34:13;9.70;83.70
32296;DHT22;18781;51.550;5.418;2023-12-20T05:36:39;9.70;83.60
32296;DHT22;18781;51.550;5.418;2023-12-20T05:39:05;9.70;83.50
32296;DHT22;18781;51.550;5.418;2023-12-20T05:41:30;9.70;83.50
32296;DHT22;18781;51.550;5.418;2023-12-20T05:43:56;9.70;83.50
32296;DHT22;18781;51.550;5.418;2023-12-20T05:46:24;9.70;83.40
32296;DHT22;18781;51.550;5.418;2023-12-20T05:48:49;9.70;83.30
32296;DHT22;18781;51.550;5.418;2023-12-20T05:51:17;9.70;83.20
32296;DHT22;18781;51.550;5.418;2023-12-20T05:53:42;9.70;83.10
32296;DHT22;18781;51.550;5.418;2023-12-20T05:56:09;9.70;83.00
32296;DHT22;18781;51.550;5.418;2023-12-20T05:58:35;9.70;82.90
32296;DHT22;18781;51.550;5.418;2023-12-20T06:01:03;9.70;82.90
32296;DHT22;18781;51.550;5.418;2023-12-20T06:03:29;9.60;82.70
32296;DHT22;18781;51.550;5.418;2023-12-20T06:05:54;9.60;82.60
32296;DHT22;18781;51.550;5.418;2023-12-20T06:08:20;9.60;82.70
32296;DHT22;18781;51.550;5.418;2023-12-20T06:10:45;9.60;82.60
32296;DHT22;18781;51.550;5.418;2023-12-20T06:13:11;9.60;82.70
32296;DHT22;18781;51.550;5.418;2023-12-20T06:15:38;9.50;82.70
32296;DHT22;18781;51.550;5.418;2023-12-20T06:18:04;9.50;82.80
32296;DHT22;18781;51.550;5.418;2023-12-20T06:20:30;9.50;82.70
32296;DHT22;18781;51.550;5.418;2023-12-20T06:22:55;9.50;82.80
32296;DHT22;18781;51.550;5.418;2023-12-20T06:25:21;9.50;82.80
32296;DHT22;18781;51.550;5.418;2023-12-20T06:27:46;9.50;82.80
32296;DHT22;18781;51.550;5.418;2023-12-20T06:30:12;9.50;82.80
32296;DHT22;18781;51.550;5.418;2023-12-20T06:32:38;9.50;82.80
32296;DHT22;18781;51.550;5.418;2023-12-20T06:35:05;9.50;82.70
32296;DHT22;18781;51.550;5.418;2023-12-20T06:37:31;9.40;82.60
32296;DHT22;18781;51.550;5.418;2023-12-20T06:39:56;9.40;82.60
32296;DHT22;18781;51.550;5.418;2023-12-20T06:42:22;9.40;82.60
32296;DHT22;18781;51.550;5.418;2023-12-20T06:44:48;9.40;82.50
32296;DHT22;18781;51.550;5.418;2023-12-20T06:47:13;9.40;82.50
32296;DHT22;18781;51.550;5.418;2023-12-20T06:49:40;9.40;82.50
32296;DHT22;18781;51.550;5.418;2023-12-20T06:52:05;9.40;82.60
32296;DHT22;18781;51.550;5.418;2023-12-20T06:54:31;9.40;82.70
32296;DHT22;18781;51.550;5.418;2023-12-20T06:56:59;9.30;82.70
32296;DHT22;18781;51.550;5.418;2023-12-20T06:59:25;9.30;82.70
32296;DHT22;18781;51.550;5.418;2023-12-20T07:01:51;9.30;82.70
32296;DHT22;18781;51.550;5.418;2023-12-20T07:04:17;9.30;82.80
32296;DHT22;18781;51.550;5.418;2023-12-20T07:06:47;9.30;82.80
32296;DHT22;18781;51.550;5.418;2023-12-20T07:09:13;9.30;82.90
32296;DHT22;18781;51.550;5.418;2023-12-20T07:11:39;9.30;82.80
32296;DHT22;18781;51.550;5.418;2023-12-20T07:14:05;9.30;82.80
32296;DHT22;18781;51.550;5.418;2023-12-20T07:16:31;9.30;82.90
32296;DHT22;18781;51.550;5.418;2023-12-20T07:18:57;9.30;82.90
32296;DHT22;18781;51.550;5.418;2023-12-20T07:21:23;9.30;82.90
32296;DHT22;18781;51.550;5.418;2023-12-20T07:23:48;9.30;82.80
32296;DHT22;18781;51.550;5.418;2023-12-20T07:26:17;9.30;82.90
32296;DHT22;18781;51.550;5.418;2023-12-20T07:28:42;9.30;82.90
32296;DHT22;18781;51.550;5.418;2023-12-20T07:31:08;9.30;82.80
32296;DHT22;18781;51.550;5.418;2023-12-20T07:33:33;9.30;82.90
32296;DHT22;18781;51.550;5.418;2023-12-20T07:35:59;9.30;82.90
32296;DHT22;18781;51.550;5.418;2023-12-20T07:38:26;9.30;82.90
32296;DHT22;18781;51.550;5.418;2023-12-20T07:40:51;9.30;82.80
32296;DHT22;18781;51.550;5.418;2023-12-20T07:43:17;9.30;82.90
32296;DHT22;18781;51.550;5.418;2023-12-20T07:45:43;9.30;83.30
32296;DHT22;18781;51.550;5.418;2023-12-20T07:48:08;9.30;83.00
32296;DHT22;18781;51.550;5.418;2023-12-20T07:50:34;9.30;82.90
32296;DHT22;18781;51.550;5.418;2023-12-20T07:53:00;9.30;82.90
32296;DHT22;18781;51.550;5.418;2023-12-20T07:55:27;9.30;83.00
32296;DHT22;18781;51.550;5.418;2023-12-20T07:57:52;9.30;83.00
32296;DHT22;18781;51.550;5.418;2023-12-20T08:00:18;9.30;83.00
32296;DHT22;18781;51.550;5.418;2023-12-20T08:02:45;9.30;83.00
32296;DHT22;18781;51.550;5.418;2023-12-20T08:05:10;9.30;83.00
32296;DHT22;18781;51.550;5.418;2023-12-20T08:07:36;9.30;83.00
32296;DHT22;18781;51.550;5.418;2023-12-20T08:10:02;9.40;83.00
32296;DHT22;18781;51.550;5.418;2023-12-20T08:12:27;9.40;83.00
32296;DHT22;18781;51.550;5.418;2023-12-20T08:14:54;9.40;83.10
32296;DHT22;18781;51.550;5.418;2023-12-20T08:17:19;9.40;83.10
32296;DHT22;18781;51.550;5.418;2023-12-20T08:19:45;9.40;83.10
32296;DHT22;18781;51.550;5.418;2023-12-20T08:22:11;9.40;83.10
32296;DHT22;18781;51.550;5.418;2023-12-20T08:24:37;9.40;83.10
32296;DHT22;18781;51.550;5.418;2023-12-20T08:27:04;9.40;83.10
32296;DHT22;18781;51.550;5.418;2023-12-20T08:29:29;9.50;83.20
32296;DHT22;18781;51.550;5.418;2023-12-20T08:31:55;9.50;83.20
32296;DHT22;18781;51.550;5.418;2023-12-20T08:34:22;9.50;83.20
32296;DHT22;18781;51.550;5.418;2023-12-20T08:36:50;9.50;83.20
32296;DHT22;18781;51.550;5.418;2023-12-20T08:39:15;9.50;83.20
32296;DHT22;18781;51.550;5.418;2023-12-20T08:41:41;9.50;83.10
32296;DHT22;18781;51.550;5.418;2023-12-20T08:44:06;9.60;83.10
32296;DHT22;18781;51.550;5.418;2023-12-20T08:46:32;9.60;83.10
32296;DHT22;18781;51.550;5.418;2023-12-20T08:48:58;9.60;83.10
32296;DHT22;18781;51.550;5.418;2023-12-20T08:51:23;9.60;83.10
32296;DHT22;18781;51.550;5.418;2023-12-20T08:53:51;9.60;83.10
32296;DHT22;18781;51.550;5.418;2023-12-20T08:56:16;9.60;83.10
32296;DHT22;18781;51.550;5.418;2023-12-20T08:58:44;9.60;83.10
32296;DHT22;18781;51.550;5.418;2023-12-20T09:01:09;9.70;83.10
32296;DHT22;18781;51.550;5.418;2023-12-20T09:03:35;9.70;83.10
32296;DHT22;18781;51.550;5.418;2023-12-20T09:06:01;9.70;83.00
32296;DHT22;18781;51.550;5.418;2023-12-20T09:08:26;9.70;82.90
32296;DHT22;18781;51.550;5.418;2023-12-20T09:10:52;9.70;82.90
32296;DHT22;18781;51.550;5.418;2023-12-20T09:13:17;9.70;82.80
32296;DHT22;18781;51.550;5.418;2023-12-20T09:15:43;9.70;82.80
32296;DHT22;18781;51.550;5.418;2023-12-20T09:18:09;9.80;82.90
32296;DHT22;18781;51.550;5.418;2023-12-20T09:20:35;9.80;82.90
32296;DHT22;18781;51.550;5.418;2023-12-20T09:23:01;9.80;82.90
32296;DHT22;18781;51.550;5.418;2023-12-20T09:25:26;9.80;82.80
32296;DHT22;18781;51.550;5.418;2023-12-20T09:27:52;9.80;82.90
32296;DHT22;18781;51.550;5.418;2023-12-20T09:30:18;9.80;82.80
32296;DHT22;18781;51.550;5.418;2023-12-20T09:32:45;9.80;82.80
32296;DHT22;18781;51.550;5.418;2023-12-20T09:35:11;9.80;82.80
32296;DHT22;18781;51.550;5.418;2023-12-20T09:37:37;9.90;82.70
32296;DHT22;18781;51.550;5.418;2023-12-20T09:40:03;9.90;82.80
32296;DHT22;18781;51.550;5.418;2023-12-20T09:45:21;9.90;82.80
32296;DHT22;18781;51.550;5.418;2023-12-20T09:47:53;9.90;82.70
32296;DHT22;18781;51.550;5.418;2023-12-20T09:50:20;9.90;82.70
32296;DHT22;18781;51.550;5.418;2023-12-20T09:52:50;9.90;82.80
32296;DHT22;18781;51.550;5.418;2023-12-20T09:55:17;9.90;82.80
32296;DHT22;18781;51.550;5.418;2023-12-20T09:57:44;9.90;82.90
32296;DHT22;18781;51.550;5.418;2023-12-20T10:00:11;9.90;82.90
32296;DHT22;18781;51.550;5.418;2023-12-20T10:02:38;10.00;82.90
32296;DHT22;18781;51.550;5.418;2023-12-20T10:05:08;10.00;82.80
32296;DHT22;18781;51.550;5.418;2023-12-20T10:07:36;10.10;82.80
32296;DHT22;18781;51.550;5.418;2023-12-20T10:10:02;10.00;82.70
32296;DHT22;18781;51.550;5.418;2023-12-20T10:12:29;10.10;82.70
32296;DHT22;18781;51.550;5.418;2023-12-20T10:14:55;10.10;82.70
32296;DHT22;18781;51.550;5.418;2023-12-20T10:17:21;10.10;82.70
32296;DHT22;18781;51.550;5.418;2023-12-20T10:19:47;10.10;82.50
32296;DHT22;18781;51.550;5.418;2023-12-20T10:22:12;10.20;82.60
32296;DHT22;18781;51.550;5.418;2023-12-20T10:24:40;10.20;82.60
32296;DHT22;18781;51.550;5.418;2023-12-20T10:27:06;10.20;82.60
32296;DHT22;18781;51.550;5.418;2023-12-20T10:29:33;10.20;82.60
32296;DHT22;18781;51.550;5.418;2023-12-20T10:31:59;10.30;82.50
32296;DHT22;18781;51.550;5.418;2023-12-20T10:34:25;10.30;82.40
32296;DHT22;18781;51.550;5.418;2023-12-20T10:36:51;10.30;82.30
32296;DHT22;18781;51.550;5.418;2023-12-20T10:39:17;10.30;82.30
32296;DHT22;18781;51.550;5.418;2023-12-20T10:41:46;10.30;82.30
32296;DHT22;18781;51.550;5.418;2023-12-20T10:44:12;10.30;82.40
32296;DHT22;18781;51.550;5.418;2023-12-20T10:46:40;10.40;82.30
32296;DHT22;18781;51.550;5.418;2023-12-20T10:49:07;10.40;82.20
32296;DHT22;18781;51.550;5.418;2023-12-20T10:51:34;10.40;82.10
32296;DHT22;18781;51.550;5.418;2023-12-20T10:54:00;10.40;82.00
32296;DHT22;18781;51.550;5.418;2023-12-20T10:56:31;10.50;82.20
32296;DHT22;18781;51.550;5.418;2023-12-20T10:58:59;10.40;82.00
32296;DHT22;18781;51.550;5.418;2023-12-20T11:01:28;10.50;82.20
32296;DHT22;18781;51.550;5.418;2023-12-20T11:03:54;10.50;82.00
32296;DHT22;18781;51.550;5.418;2023-12-20T11:06:36;10.50;82.10
32296;DHT22;18781;51.550;5.418;2023-12-20T11:12:02;10.50;82.10
32296;DHT22;18781;51.550;5.418;2023-12-20T11:14:54;10.50;82.30
32296;DHT22;18781;51.550;5.418;2023-12-20T11:17:28;10.50;82.30
32296;DHT22;18781;51.550;5.418;2023-12-20T11:22:25;10.60;82.50
32296;DHT22;18781;51.550;5.418;2023-12-20T11:24:52;10.60;82.40
32296;DHT22;18781;51.550;5.418;2023-12-20T11:27:19;10.60;82.30
32296;DHT22;18781;51.550;5.418;2023-12-20T11:29:52;10.60;82.40
32296;DHT22;18781;51.550;5.418;2023-12-20T11:35:19;10.60;82.40
32296;DHT22;18781;51.550;5.418;2023-12-20T11:37:45;10.60;82.60
32296;DHT22;18781;51.550;5.418;2023-12-20T11:40:18;10.70;82.60
32296;DHT22;18781;51.550;5.418;2023-12-20T11:42:50;10.70;82.60
32296;DHT22;18781;51.550;5.418;2023-12-20T11:45:19;10.70;82.70
32296;DHT22;18781;51.550;5.418;2023-12-20T11:47:48;10.70;82.70
32296;DHT22;18781;51.550;5.418;2023-12-20T11:50:16;10.70;82.80
32296;DHT22;18781;51.550;5.418;2023-12-20T11:52:41;10.70;82.80
32296;DHT22;18781;51.550;5.418;2023-12-20T11:55:07;10.70;82.80
32296;DHT22;18781;51.550;5.418;2023-12-20T11:57:33;10.70;82.90
32296;DHT22;18781;51.550;5.418;2023-12-20T12:00:00;10.70;83.00
32296;DHT22;18781;51.550;5.418;2023-12-20T12:02:26;10.70;83.10
32296;DHT22;18781;51.550;5.418;2023-12-20T12:04:52;10.70;83.00
32296;DHT22;18781;51.550;5.418;2023-12-20T12:07:18;10.70;83.00
32296;DHT22;18781;51.550;5.418;2023-12-20T12:09:44;10.80;83.10
32296;DHT22;18781;51.550;5.418;2023-12-20T12:12:11;10.80;83.00
32296;DHT22;18781;51.550;5.418;2023-12-20T12:14:37;10.80;83.00
32296;DHT22;18781;51.550;5.418;2023-12-20T12:17:04;10.80;83.00
32296;DHT22;18781;51.550;5.418;2023-12-20T12:19:30;10.80;83.00
32296;DHT22;18781;51.550;5.418;2023-12-20T12:22:16;10.80;83.10
32296;DHT22;18781;51.550;5.418;2023-12-20T12:24:42;10.80;83.30
32296;DHT22;18781;51.550;5.418;2023-12-20T12:27:08;10.90;83.20
32296;DHT22;18781;51.550;5.418;2023-12-20T12:29:35;10.90;83.20
32296;DHT22;18781;51.550;5.418;2023-12-20T12:32:04;10.90;83.20
32296;DHT22;18781;51.550;5.418;2023-12-20T12:34:30;10.90;83.20
32296;DHT22;18781;51.550;5.418;2023-12-20T12:36:56;10.90;83.20
32296;DHT22;18781;51.550;5.418;2023-12-20T12:39:23;10.90;83.20
32296;DHT22;18781;51.550;5.418;2023-12-20T12:41:50;10.90;83.20
32296;DHT22;18781;51.550;5.418;2023-12-20T12:44:16;11.00;83.30
32296;DHT22;18781;51.550;5.418;2023-12-20T12:46:46;11.00;83.10
32296;DHT22;18781;51.550;5.418;2023-12-20T12:49:12;11.00;83.10
32296;DHT22;18781;51.550;5.418;2023-12-20T12:51:38;11.00;83.10
32296;DHT22;18781;51.550;5.418;2023-12-20T12:54:04;11.00;83.10
32296;DHT22;18781;51.550;5.418;2023-12-20T12:56:29;11.00;83.10
32296;DHT22;18781;51.550;5.418;2023-12-20T12:58:55;11.00;83.10
32296;DHT22;18781;51.550;5.418;2023-12-20T13:01:21;11.00;83.10
32296;DHT22;18781;51.550;5.418;2023-12-20T13:03:47;11.10;83.10
32296;DHT22;18781;51.550;5.418;2023-12-20T13:06:12;11.10;83.00
32296;DHT22;18781;51.550;5.418;2023-12-20T13:08:38;11.10;83.00
32296;DHT22;18781;51.550;5.418;2023-12-20T13:11:04;11.10;83.00
32296;DHT22;18781;51.550;5.418;2023-12-20T13:13:30;11.10;82.90
32296;DHT22;18781;51.550;5.418;2023-12-20T13:15:56;11.10;82.80
32296;DHT22;18781;51.550;5.418;2023-12-20T13:18:22;11.10;82.80
32296;DHT22;18781;51.550;5.418;2023-12-20T13:20:48;11.20;82.90
32296;DHT22;18781;51.550;5.418;2023-12-20T13:23:14;11.20;82.80
32296;DHT22;18781;51.550;5.418;2023-12-20T13:25:41;11.20;82.80
32296;DHT22;18781;51.550;5.418;2023-12-20T13:28:07;11.20;82.70
32296;DHT22;18781;51.550;5.418;2023-12-20T13:30:34;11.20;82.60
32296;DHT22;18781;51.550;5.418;2023-12-20T13:32:59;11.20;82.70
32296;DHT22;18781;51.550;5.418;2023-12-20T13:35:25;11.30;82.70
32296;DHT22;18781;51.550;5.418;2023-12-20T13:37:51;11.30;82.70
32296;DHT22;18781;51.550;5.418;2023-12-20T13:40:17;11.30;82.60
32296;DHT22;18781;51.550;5.418;2023-12-20T13:42:43;11.30;82.50
32296;DHT22;18781;51.550;5.418;2023-12-20T13:45:09;11.30;82.50
32296;DHT22;18781;51.550;5.418;2023-12-20T13:47:35;11.30;82.40
32296;DHT22;18781;51.550;5.418;2023-12-20T13:50:00;11.30;82.50
32296;DHT22;18781;51.550;5.418;2023-12-20T13:52:26;11.30;82.40
32296;DHT22;18781;51.550;5.418;2023-12-20T13:54:52;11.30;82.40
32296;DHT22;18781;51.550;5.418;2023-12-20T13:57:17;11.30;82.30
32296;DHT22;18781;51.550;5.418;2023-12-20T13:59:43;11.30;82.30
32296;DHT22;18781;51.550;5.418;2023-12-20T14:02:09;11.30;82.30
32296;DHT22;18781;51.550;5.418;2023-12-20T14:04:34;11.30;82.20
32296;DHT22;18781;51.550;5.418;2023-12-20T14:07:01;11.30;82.20
32296;DHT22;18781;51.550;5.418;2023-12-20T14:09:26;11.30;82.20
32296;DHT22;18781;51.550;5.418;2023-12-20T14:11:52;11.20;82.10
32296;DHT22;18781;51.550;5.418;2023-12-20T14:14:18;11.20;82.10
32296;DHT22;18781;51.550;5.418;2023-12-20T14:16:44;11.20;82.30
32296;DHT22;18781;51.550;5.418;2023-12-20T14:19:11;11.20;82.30
32296;DHT22;18781;51.550;5.418;2023-12-20T14:21:36;11.20;82.30
32296;DHT22;18781;51.550;5.418;2023-12-20T14:24:02;11.20;82.40
32296;DHT22;18781;51.550;5.418;2023-12-20T14:26:29;11.20;82.40
32296;DHT22;18781;51.550;5.418;2023-12-20T14:28:55;11.20;82.40
32296;DHT22;18781;51.550;5.418;2023-12-20T14:31:21;11.20;82.50
32296;DHT22;18781;51.550;5.418;2023-12-20T14:33:49;11.20;82.50
32296;DHT22;18781;51.550;5.418;2023-12-20T14:36:16;11.20;82.50
32296;DHT22;18781;51.550;5.418;2023-12-20T14:38:43;11.20;82.40
32296;DHT22;18781;51.550;5.418;2023-12-20T14:41:09;11.20;82.50
32296;DHT22;18781;51.550;5.418;2023-12-20T14:43:34;11.20;82.90
32296;DHT22;18781;51.550;5.418;2023-12-20T14:46:00;11.20;82.40
32296;DHT22;18781;51.550;5.418;2023-12-20T14:48:26;11.20;82.40
32296;DHT22;18781;51.550;5.418;2023-12-20T14:50:53;11.20;82.40
32296;DHT22;18781;51.550;5.418;2023-12-20T14:53:19;11.20;82.40
32296;DHT22;18781;51.550;5.418;2023-12-20T14:55:45;11.20;82.30
32296;DHT22;18781;51.550;5.418;2023-12-20T14:58:11;11.20;82.40
32296;DHT22;18781;51.550;5.418;2023-12-20T15:00:37;11.20;82.30
32296;DHT22;18781;51.550;5.418;2023-12-20T15:03:03;11.20;82.40
32296;DHT22;18781;51.550;5.418;2023-12-20T15:05:30;11.20;82.40
32296;DHT22;18781;51.550;5.418;2023-12-20T15:07:56;11.20;82.30
32296;DHT22;18781;51.550;5.418;2023-12-20T15:10:22;11.20;82.30
32296;DHT22;18781;51.550;5.418;2023-12-20T15:12:47;11.20;82.30
32296;DHT22;18781;51.550;5.418;2023-12-20T15:15:13;11.20;82.40
32296;DHT22;18781;51.550;5.418;2023-12-20T15:17:39;11.30;82.30
32296;DHT22;18781;51.550;5.418;2023-12-20T15:20:05;11.20;82.30
32296;DHT22;18781;51.550;5.418;2023-12-20T15:22:31;11.20;82.30
32296;DHT22;18781;51.550;5.418;2023-12-20T15:24:59;11.20;82.30
32296;DHT22;18781;51.550;5.418;2023-12-20T15:27:25;11.20;82.40
32296;DHT22;18781;51.550;5.418;2023-12-20T15:29:50;11.20;82.40
32296;DHT22;18781;51.550;5.418;2023-12-20T15:32:17;11.20;82.40
32296;DHT22;18781;51.550;5.418;2023-12-20T15:34:44;11.20;82.50
32296;DHT22;18781;51.550;5.418;2023-12-20T15:37:10;11.30;83.00
32296;DHT22;18781;51.550;5.418;2023-12-20T15:39:36;11.30;82.40
32296;DHT22;18781;51.550;5.418;2023-12-20T15:42:02;11.30;82.40
32296;DHT22;18781;51.550;5.418;2023-12-20T15:44:28;11.30;82.40
32296;DHT22;18781;51.550;5.418;2023-12-20T15:46:53;11.30;82.40